createdAt,value
2018-08-20T00:00:23.019Z,15.53
2018-08-20T00:02:55.132Z,16.30
2018-08-20T00:05:25.324Z,15.33
2018-08-20T00:07:59.025Z,15.77
2018-08-20T00:10:30.174Z,16.07
2018-08-20T00:12:59.387Z,20.83
2018-08-20T00:15:28.478Z,12.53
2018-08-20T00:17:57.590Z,15.33
2018-08-20T00:20:26.672Z,17.77
2018-08-20T00:22:55.858Z,17.43
2018-08-20T00:25:24.894Z,14.50
2018-08-20T00:27:53.830Z,11.20
2018-08-20T00:30:23.559Z,16.37
2018-08-20T00:32:54.713Z,12.03
2018-08-20T00:35:23.882Z,15.83
2018-08-20T00:37:53.992Z,14.00
2018-08-20T00:40:23.119Z,14.27
2018-08-20T00:42:52.242Z,15.03
2018-08-20T00:45:21.716Z,18.47
2018-08-20T00:47:50.794Z,14.63
2018-08-20T00:50:20.180Z,15.03
2018-08-20T00:52:51.293Z,11.23
2018-08-20T00:55:20.553Z,15.63
2018-08-20T00:57:49.634Z,12.73
2018-08-20T01:00:18.829Z,16.80
2018-08-20T01:02:47.989Z,12.47
2018-08-20T01:05:17.096Z,16.60
2018-08-20T01:07:46.244Z,11.97
2018-08-20T01:10:15.370Z,12.90
2018-08-20T01:12:44.502Z,14.40
2018-08-20T01:15:14.808Z,11.97
2018-08-20T01:17:43.965Z,16.80
2018-08-20T01:20:13.054Z,13.87
2018-08-20T01:22:42.252Z,12.97
2018-08-20T01:25:11.321Z,16.63
2018-08-20T01:27:40.772Z,12.87
2018-08-20T01:30:09.832Z,12.27
2018-08-20T01:32:38.971Z,13.67
2018-08-20T01:40:45.055Z,13.73
2018-08-20T01:43:14.060Z,14.20
2018-08-20T01:45:43.347Z,16.33
2018-08-20T01:48:12.443Z,16.17
2018-08-20T01:50:41.533Z,13.37
2018-08-20T01:53:10.779Z,16.47
2018-08-20T01:55:39.931Z,12.80
2018-08-20T01:58:09.387Z,15.37
2018-08-20T02:00:39.526Z,13.43
2018-08-20T02:03:08.822Z,13.47
2018-08-20T02:05:37.980Z,15.83
2018-08-20T02:08:07.228Z,13.80
2018-08-20T02:10:36.149Z,16.83
2018-08-20T02:13:05.045Z,10.67
2018-08-20T02:15:34.109Z,14.43
2018-08-20T02:18:05.987Z,15.73
2018-08-20T02:20:35.629Z,15.43
2018-08-20T02:23:04.774Z,17.60
2018-08-20T02:25:33.958Z,15.33
2018-08-20T02:28:03.176Z,24.70
2018-08-20T02:30:32.298Z,14.80
2018-08-20T02:33:01.497Z,15.40
2018-08-20T02:35:30.622Z,15.17
2018-08-20T02:37:59.762Z,17.17
2018-08-20T02:40:29.195Z,17.77
2018-08-20T02:42:58.535Z,14.63
2018-08-20T02:45:27.683Z,14.23
2018-08-20T02:47:56.574Z,15.17
2018-08-20T02:50:25.441Z,11.30
2018-08-20T02:52:54.422Z,12.10
2018-08-20T02:55:23.328Z,14.93
2018-08-20T02:57:52.598Z,19.50
2018-08-20T03:00:21.862Z,14.00
2018-08-20T03:02:50.759Z,14.43
2018-08-20T03:05:19.707Z,15.03
2018-08-20T03:07:48.886Z,13.67
2018-08-20T03:10:18.137Z,11.00
2018-08-20T03:12:47.106Z,16.73
2018-08-20T03:15:15.947Z,10.77
2018-08-20T03:17:44.932Z,18.50
2018-08-20T03:20:13.873Z,15.00
2018-08-20T03:22:42.789Z,15.03
2018-08-20T03:25:11.852Z,14.57
2018-08-20T03:27:40.988Z,14.10
2018-08-20T03:30:10.716Z,13.73
2018-08-20T03:32:41.262Z,9.87
2018-08-20T03:35:12.049Z,12.07
2018-08-20T03:37:40.941Z,15.70
2018-08-20T03:40:11.765Z,14.87
2018-08-20T03:42:41.061Z,18.33
2018-08-20T03:45:10.710Z,13.20
2018-08-20T03:47:39.882Z,16.87
2018-08-20T03:50:11.093Z,13.37
2018-08-20T03:52:39.982Z,11.73
2018-08-20T03:55:08.962Z,10.00
2018-08-20T03:57:39.352Z,12.50
2018-08-20T04:00:09.772Z,13.30
2018-08-20T04:02:38.882Z,14.10
2018-08-20T04:05:07.883Z,12.77
2018-08-20T04:07:37.439Z,8.97
2018-08-20T04:10:06.589Z,18.20
2018-08-20T04:12:36.687Z,13.00
2018-08-20T04:15:05.832Z,10.97
2018-08-20T04:17:34.919Z,14.83
2018-08-20T04:20:04.261Z,13.47
2018-08-20T04:22:33.425Z,10.20
2018-08-20T04:25:02.541Z,17.53
2018-08-20T04:27:31.811Z,12.07
2018-08-20T04:30:01.606Z,17.17
2018-08-20T04:32:30.848Z,13.83
2018-08-20T04:35:00.462Z,15.13
2018-08-20T04:37:29.387Z,12.93
2018-08-20T04:39:58.311Z,16.10
2018-08-20T04:42:27.500Z,13.77
2018-08-20T04:44:56.917Z,16.33
2018-08-20T04:47:25.756Z,20.40
2018-08-20T04:49:54.853Z,14.37
2018-08-20T04:52:23.660Z,17.43
2018-08-20T04:54:52.512Z,15.67
2018-08-20T04:57:22.864Z,15.23
2018-08-20T04:59:52.142Z,17.50
2018-08-20T05:02:21.053Z,16.93
2018-08-20T05:04:49.941Z,19.17
2018-08-20T05:07:18.959Z,20.43
2018-08-20T05:09:47.764Z,20.73
2018-08-20T05:12:17.306Z,18.27
2018-08-20T05:14:46.847Z,19.93
2018-08-20T05:17:15.748Z,19.97
2018-08-20T05:19:44.674Z,18.63
2018-08-20T05:22:15.480Z,20.73
2018-08-20T05:24:44.449Z,18.30
2018-08-20T05:27:14.101Z,20.83
2018-08-20T05:29:43.453Z,22.83
2018-08-20T05:32:12.920Z,20.10
2018-08-20T05:34:41.912Z,22.67
2018-08-20T05:37:10.768Z,25.20
2018-08-20T05:39:39.666Z,23.63
2018-08-20T05:42:08.637Z,21.77
2018-08-20T05:44:37.627Z,28.93
2018-08-20T05:47:07.862Z,32.60
2018-08-20T05:49:38.048Z,27.43
2018-08-20T05:52:07.805Z,31.03
2018-08-20T05:54:36.693Z,29.67
2018-08-20T05:57:05.837Z,28.00
2018-08-20T05:59:34.720Z,25.37
2018-08-20T06:02:03.638Z,29.70
2018-08-20T06:04:32.669Z,24.60
2018-08-20T06:07:02.546Z,27.60
2018-08-20T06:09:32.355Z,27.07
2018-08-20T06:12:01.298Z,28.50
2018-08-20T06:14:30.196Z,25.10
2018-08-20T06:16:59.861Z,26.87
2018-08-20T06:19:28.770Z,23.73
2018-08-20T06:21:57.617Z,20.33
2018-08-20T06:24:26.505Z,28.03
2018-08-20T06:26:55.503Z,25.13
2018-08-20T06:29:25.730Z,26.70
2018-08-20T06:31:54.585Z,25.67
2018-08-20T06:34:23.687Z,23.63
2018-08-20T06:36:52.867Z,28.63
2018-08-20T06:39:21.752Z,24.87
2018-08-20T06:41:50.592Z,25.63
2018-08-20T06:44:19.469Z,20.87
2018-08-20T06:46:48.738Z,23.30
2018-08-20T06:49:17.863Z,23.47
2018-08-20T06:51:46.799Z,27.23
2018-08-20T06:54:15.749Z,25.80
2018-08-20T06:56:44.687Z,27.53
2018-08-20T06:59:14.090Z,30.53
2018-08-20T07:01:43.094Z,30.27
2018-08-20T07:04:12.161Z,32.57
2018-08-20T07:06:41.791Z,31.63
2018-08-20T07:09:11.646Z,30.47
2018-08-20T07:11:40.696Z,36.60
2018-08-20T07:14:09.573Z,37.00
2018-08-20T07:16:39.336Z,35.43
2018-08-20T07:19:08.274Z,35.60
2018-08-20T07:21:37.511Z,31.53
2018-08-20T07:24:09.580Z,30.73
2018-08-20T07:26:38.791Z,31.03
2018-08-20T07:29:07.737Z,34.47
2018-08-20T07:31:36.601Z,33.13
2018-08-20T07:34:06.364Z,32.47
2018-08-20T07:36:35.179Z,32.10
2018-08-20T07:39:04.470Z,34.33
2018-08-20T07:41:34.409Z,31.27
2018-08-20T07:44:04.359Z,27.50
2018-08-20T07:46:33.224Z,27.07
2018-08-20T07:49:07.363Z,36.13
2018-08-20T07:51:38.640Z,33.10
2018-08-20T07:54:07.600Z,30.27
2018-08-20T07:56:36.731Z,25.17
2018-08-20T07:59:05.701Z,37.13
2018-08-20T08:01:37.374Z,35.90
2018-08-20T08:04:06.652Z,38.87
2018-08-20T08:06:36.327Z,34.03
2018-08-20T08:09:08.405Z,32.90
2018-08-20T08:11:37.699Z,32.30
2018-08-20T08:14:07.315Z,34.40
2018-08-20T08:16:37.620Z,32.30
2018-08-20T08:19:07.633Z,29.03
2018-08-20T08:21:50.053Z,27.97
2018-08-20T08:24:19.251Z,30.23
2018-08-20T08:26:48.606Z,37.43
2018-08-20T08:29:19.836Z,32.07
2018-08-20T08:31:48.942Z,35.97
2018-08-20T08:34:19.671Z,32.63
2018-08-20T08:36:49.632Z,34.80
2018-08-20T08:39:20.129Z,33.00
2018-08-20T08:41:51.226Z,34.20
2018-08-20T08:44:21.336Z,29.13
2018-08-20T08:46:50.346Z,32.60
2018-08-20T08:49:20.100Z,31.17
2018-08-20T08:51:49.272Z,29.13
2018-08-20T08:54:18.258Z,30.40
2018-08-20T08:56:47.812Z,30.87
2018-08-20T08:59:16.750Z,34.20
2018-08-20T09:01:45.650Z,27.00
2018-08-20T09:04:14.519Z,32.60
2018-08-20T09:06:43.554Z,29.83
2018-08-20T09:09:12.810Z,24.57
2018-08-20T09:11:43.415Z,26.67
2018-08-20T09:14:14.316Z,25.30
2018-08-20T09:16:44.071Z,30.23
2018-08-20T09:19:14.011Z,28.53
2018-08-20T09:21:43.360Z,26.93
2018-08-20T09:24:12.343Z,26.87
2018-08-20T09:26:41.495Z,27.67
2018-08-20T09:29:11.381Z,29.60
2018-08-20T09:31:40.574Z,27.30
2018-08-20T09:34:09.728Z,28.53
2018-08-20T09:36:39.101Z,29.87
2018-08-20T09:39:08.951Z,30.63
2018-08-20T09:41:39.357Z,28.97
2018-08-20T09:44:08.293Z,28.73
2018-08-20T09:46:37.286Z,31.10
2018-08-20T09:49:06.542Z,30.53
2018-08-20T09:51:36.542Z,27.13
2018-08-20T09:54:08.674Z,31.87
2018-08-20T09:56:37.592Z,29.10
2018-08-20T09:59:06.672Z,32.50
2018-08-20T10:01:35.635Z,32.97
2018-08-20T10:04:04.570Z,35.10
2018-08-20T10:06:33.571Z,28.60
2018-08-20T10:09:04.667Z,30.33
2018-08-20T10:11:35.246Z,27.43
2018-08-20T10:14:04.309Z,30.70
2018-08-20T10:16:33.672Z,28.53
2018-08-20T10:19:04.578Z,29.40
2018-08-20T10:21:37.863Z,31.70
2018-08-20T10:24:07.655Z,24.67
2018-08-20T10:26:36.615Z,29.20
2018-08-20T10:29:05.904Z,31.30
2018-08-20T10:31:35.628Z,22.83
2018-08-20T10:34:05.201Z,25.97
2018-08-20T10:36:34.146Z,29.25
2018-08-20T10:39:03.505Z,28.98
2018-08-20T10:41:33.980Z,26.05
2018-08-20T10:44:04.400Z,25.08
2018-08-20T10:46:33.257Z,24.87
2018-08-20T10:49:02.592Z,22.55
2018-08-20T10:51:34.217Z,19.32
2018-08-20T10:54:03.311Z,26.15
2018-08-20T10:56:32.512Z,25.23
2018-08-20T10:59:01.523Z,32.63
2018-08-20T11:01:35.511Z,22.10
2018-08-20T11:04:05.896Z,24.40
2018-08-20T11:06:34.726Z,23.37
2018-08-20T11:09:03.992Z,27.93
2018-08-20T11:11:33.745Z,24.63
2018-08-20T11:14:02.836Z,25.33
2018-08-20T11:16:31.879Z,29.80
2018-08-20T11:19:00.764Z,28.23
2018-08-20T11:21:29.733Z,26.73
2018-08-20T11:23:58.624Z,29.60
2018-08-20T11:26:28.130Z,27.80
2018-08-20T11:28:57.039Z,29.73
2018-08-20T11:31:27.241Z,29.97
2018-08-20T11:33:56.768Z,30.07
2018-08-20T11:36:26.868Z,33.57
2018-08-20T11:38:55.774Z,36.90
2018-08-20T11:41:24.693Z,35.57
2018-08-20T11:43:54.267Z,32.23
2018-08-20T11:46:23.364Z,35.50
2018-08-20T11:48:52.383Z,29.67
2018-08-20T11:51:21.341Z,30.23
2018-08-20T11:53:54.429Z,25.53
2018-08-20T11:56:24.441Z,28.07
2018-08-20T11:58:54.091Z,25.40
2018-08-20T12:01:24.448Z,22.27
2018-08-20T12:03:55.852Z,26.03
2018-08-20T12:06:26.343Z,20.83
2018-08-20T12:08:58.620Z,21.97
2018-08-20T12:11:28.351Z,20.47
2018-08-20T12:13:57.385Z,20.20
2018-08-20T12:16:29.559Z,22.57
2018-08-20T12:18:59.501Z,18.20
2018-08-20T12:21:28.461Z,20.03
2018-08-20T12:23:59.097Z,17.77
2018-08-20T12:26:28.880Z,15.47
2018-08-20T12:28:57.926Z,14.87
2018-08-20T12:31:26.969Z,15.50
2018-08-20T12:33:58.745Z,12.77
2018-08-20T12:36:28.987Z,12.37
2018-08-20T12:39:00.284Z,12.93
2018-08-20T12:41:30.727Z,11.30
2018-08-20T12:44:03.095Z,11.60
2018-08-20T12:46:32.428Z,11.73
2018-08-20T12:49:08.335Z,12.70
2018-08-20T12:51:37.492Z,15.18
2018-08-20T12:54:06.671Z,14.30
2018-08-20T12:56:37.085Z,11.10
2018-08-20T12:59:06.841Z,14.07
2018-08-20T13:01:38.728Z,19.50
2018-08-20T13:04:10.717Z,12.67
2018-08-20T13:06:39.682Z,13.07
2018-08-20T13:09:10.671Z,11.43
2018-08-20T13:11:40.630Z,12.77
2018-08-20T13:14:13.917Z,15.37
2018-08-20T13:16:43.270Z,11.37
2018-08-20T13:19:12.804Z,10.13
2018-08-20T13:21:42.945Z,9.43
2018-08-20T13:24:14.927Z,14.87
2018-08-20T13:26:45.772Z,14.73
2018-08-20T13:29:15.520Z,12.43
2018-08-20T13:31:44.563Z,13.03
2018-08-20T13:34:16.564Z,18.73
2018-08-20T13:36:45.692Z,14.00
2018-08-20T13:39:14.601Z,10.85
2018-08-20T13:41:44.627Z,12.43
2018-08-20T13:44:14.466Z,10.93
2018-08-20T13:46:43.727Z,11.00
2018-08-20T13:49:12.733Z,8.88
2018-08-20T13:51:41.653Z,9.03
2018-08-20T13:54:14.095Z,10.82
2018-08-20T13:56:44.517Z,12.40
2018-08-20T13:59:13.696Z,9.08
2018-08-20T14:01:43.434Z,12.37
2018-08-20T14:04:13.711Z,10.53
2018-08-20T14:06:42.704Z,11.87
2018-08-20T14:09:12.126Z,13.43
2018-08-20T14:11:42.976Z,7.07
2018-08-20T14:14:13.725Z,9.10
2018-08-20T14:16:43.044Z,5.87
2018-08-20T14:19:17.565Z,8.80
2018-08-20T14:21:47.017Z,6.73
2018-08-20T14:24:16.171Z,6.05
2018-08-20T14:26:47.085Z,8.60
2018-08-20T14:29:16.846Z,6.20
2018-08-20T14:31:46.927Z,6.40
2018-08-20T14:34:16.838Z,3.90
2018-08-20T14:36:47.429Z,7.67
2018-08-20T14:39:17.428Z,6.57
2018-08-20T14:41:47.308Z,3.83
2018-08-20T14:44:16.173Z,5.93
2018-08-20T14:46:45.090Z,5.60
2018-08-20T14:49:14.933Z,5.23
2018-08-20T14:51:46.140Z,2.37
2018-08-20T14:54:16.654Z,2.50
2018-08-20T14:56:45.712Z,4.42
2018-08-20T14:59:14.843Z,4.05
2018-08-20T15:01:43.670Z,3.95
2018-08-20T15:04:12.594Z,4.22
2018-08-20T15:07:14.729Z,3.90
2018-08-20T15:09:43.718Z,7.78
2018-08-20T15:12:14.703Z,3.55
2018-08-20T15:14:43.730Z,2.72
2018-08-20T15:17:13.913Z,6.30
2018-08-20T15:19:43.335Z,2.35
2018-08-20T15:22:15.296Z,2.23
2018-08-20T15:24:47.307Z,3.43
2018-08-20T15:27:18.333Z,2.30
2018-08-20T15:29:47.587Z,3.33
2018-08-20T15:32:19.771Z,2.30
2018-08-20T15:34:49.917Z,1.50
2018-08-20T15:37:19.392Z,3.73
2018-08-20T15:39:49.237Z,3.00
2018-08-20T15:42:20.420Z,2.50
2018-08-20T15:44:53.748Z,2.47
2018-08-20T15:47:25.032Z,2.03
2018-08-20T15:49:54.575Z,2.43
2018-08-20T15:52:28.813Z,2.77
2018-08-20T15:54:59.253Z,3.30
2018-08-20T15:57:31.528Z,1.50
2018-08-20T16:00:05.698Z,4.17
2018-08-20T16:02:41.295Z,3.77
2018-08-20T16:05:11.762Z,1.70
2018-08-20T16:07:43.716Z,2.23
2018-08-20T16:10:14.706Z,3.60
2018-08-20T16:12:48.652Z,9.63
2018-08-20T16:15:18.206Z,2.83
2018-08-20T16:17:47.869Z,2.23
2018-08-20T16:20:22.533Z,3.00
2018-08-20T16:22:53.214Z,2.50
2018-08-20T16:25:23.521Z,2.93
2018-08-20T16:27:55.004Z,2.77
2018-08-20T16:30:24.106Z,2.20
2018-08-20T16:32:54.394Z,3.13
2018-08-20T16:35:23.441Z,2.37
2018-08-20T16:37:55.593Z,3.17
2018-08-20T16:40:29.049Z,6.57
2018-08-20T16:43:00.203Z,1.50
2018-08-20T16:45:39.314Z,1.53
2018-08-20T16:48:15.044Z,4.53
2018-08-20T16:50:47.270Z,3.23
2018-08-20T16:53:19.247Z,3.63
2018-08-20T16:55:56.765Z,1.23
2018-08-20T16:58:32.047Z,2.13
2018-08-20T17:01:04.742Z,2.60
2018-08-20T17:03:36.484Z,1.70
2018-08-20T17:06:09.881Z,1.60
2018-08-20T17:08:39.760Z,2.50
2018-08-20T17:11:09.022Z,1.60
2018-08-20T17:13:41.835Z,2.50
2018-08-20T17:16:16.127Z,1.57
2018-08-20T17:18:48.482Z,1.57
2018-08-20T18:35:37.377Z,1.40
2018-08-20T18:38:08.017Z,1.40
2018-08-20T18:40:38.762Z,2.23
2018-08-20T18:43:08.863Z,1.30
2018-08-20T18:45:38.419Z,4.37
2018-08-20T18:48:08.112Z,1.97
2018-08-20T18:50:37.622Z,1.50
2018-08-20T18:53:07.112Z,0.90
2018-08-20T18:55:37.730Z,4.00
2018-08-20T18:58:09.668Z,1.00
2018-08-20T19:00:39.924Z,2.33
2018-08-20T19:03:09.631Z,1.17
2018-08-20T19:05:44.155Z,1.37
2018-08-20T19:08:18.748Z,1.03
2018-08-20T19:10:49.662Z,2.73
2018-08-20T19:13:21.168Z,1.43
2018-08-20T19:15:51.935Z,0.90
2018-08-20T19:18:26.522Z,1.33
2018-08-20T19:20:58.337Z,2.83
2018-08-20T19:23:29.587Z,2.33
2018-08-20T19:26:00.882Z,0.90
2018-08-20T19:28:32.449Z,1.37
2018-08-20T19:31:02.853Z,2.20
2018-08-20T19:33:32.632Z,0.70
2018-08-20T19:36:08.553Z,0.80
2018-08-20T19:38:39.239Z,2.80
2018-08-20T19:41:12.848Z,1.70
2018-08-20T19:43:49.229Z,3.27
2018-08-20T19:46:32.093Z,1.10
2018-08-20T19:49:06.652Z,0.93
2018-08-20T19:53:46.597Z,1.30
2018-08-20T19:56:17.484Z,6.00
2018-08-20T19:58:49.932Z,1.40
2018-08-20T20:01:20.770Z,2.20
2018-08-20T20:03:50.903Z,1.50
2018-08-20T20:06:20.285Z,2.03
2018-08-20T20:08:49.858Z,1.37
2018-08-20T20:11:24.752Z,2.07
2018-08-20T20:13:56.557Z,3.80
2018-08-20T20:16:27.014Z,1.03
2018-08-20T20:18:56.868Z,1.43
2018-08-20T20:21:27.881Z,2.00
2018-08-20T20:23:57.639Z,2.80
2018-08-20T20:26:29.454Z,3.03
2018-08-20T20:29:03.756Z,2.23
2018-08-20T20:31:35.331Z,1.60
2018-08-20T20:34:08.430Z,1.50
2018-08-20T20:36:42.383Z,2.20
2018-08-20T20:39:13.079Z,2.17
2018-08-20T20:41:42.632Z,1.20
2018-08-20T20:44:13.674Z,1.23
2018-08-20T20:46:43.580Z,1.47
2018-08-20T20:49:13.423Z,2.70
2018-08-20T20:51:43.461Z,1.37
2018-08-20T20:54:13.912Z,1.20
2018-08-20T20:56:44.380Z,1.20
2018-08-20T20:59:16.341Z,2.07
2018-08-20T21:01:45.802Z,2.37
2018-08-20T21:04:15.084Z,4.03
2018-08-20T21:06:44.574Z,2.60
2018-08-20T21:09:14.317Z,3.07
2018-08-20T21:11:44.625Z,1.63
2018-08-20T21:17:10.153Z,1.73
2018-08-20T21:19:39.421Z,1.47
2018-08-20T21:22:09.962Z,3.63
2018-08-20T21:24:40.806Z,1.73
2018-08-20T21:27:18.158Z,1.47
2018-08-20T21:29:47.719Z,2.23
2018-08-20T21:32:19.372Z,3.53
2018-08-20T21:34:48.960Z,2.10
2018-08-20T21:37:20.025Z,3.03
2018-08-20T21:39:49.699Z,2.23
2018-08-20T21:42:29.984Z,2.10
2018-08-20T21:44:59.702Z,2.10
2018-08-20T21:47:30.772Z,1.73
2018-08-20T21:50:02.298Z,1.97
2018-08-20T21:52:32.682Z,1.70
2018-08-20T21:55:02.226Z,1.50
2018-08-20T21:57:31.888Z,1.50
2018-08-20T22:00:11.538Z,1.40
2018-08-20T22:02:44.681Z,1.63
2018-08-20T22:05:17.646Z,1.10
2018-08-20T22:07:49.078Z,2.67
2018-08-20T22:10:18.797Z,1.27
2018-08-20T22:12:47.887Z,1.70
2018-08-20T22:15:17.158Z,1.67
2018-08-20T22:17:46.507Z,1.63
2018-08-20T22:20:17.160Z,2.47
2018-08-20T22:22:47.470Z,1.90
2018-08-20T22:25:17.411Z,2.10
2018-08-20T22:27:51.776Z,2.13
2018-08-20T22:30:21.322Z,2.50
2018-08-20T22:32:51.992Z,1.77
2018-08-20T22:35:24.758Z,3.07
2018-08-20T22:37:55.095Z,2.40
2018-08-20T22:40:24.602Z,2.13
2018-08-20T22:42:59.746Z,2.47
2018-08-20T22:45:28.996Z,1.90
2018-08-20T22:47:58.088Z,1.73
2018-08-20T22:50:27.411Z,2.70
2018-08-20T22:52:58.164Z,1.50
2018-08-20T22:55:27.314Z,1.63
2018-08-20T22:58:10.224Z,2.43
2018-08-20T23:00:39.702Z,2.43
2018-08-20T23:03:09.230Z,2.00
2018-08-20T23:05:38.397Z,1.53
2018-08-20T23:08:20.721Z,2.70
2018-08-20T23:10:50.008Z,3.30
2018-08-20T23:13:20.884Z,2.00
2018-08-20T23:15:53.746Z,4.63
2018-08-20T23:18:23.282Z,1.67
2018-08-20T23:20:52.395Z,1.83
2018-08-20T23:23:29.116Z,2.10
2018-08-20T23:26:09.862Z,2.93
2018-08-20T23:28:42.473Z,2.93
2018-08-20T23:31:12.739Z,1.97
2018-08-20T23:33:41.929Z,3.80
2018-08-20T23:36:12.601Z,2.67
2018-08-20T23:38:42.021Z,2.57
2018-08-20T23:41:15.577Z,2.50
2018-08-20T23:43:49.656Z,1.73
2018-08-20T23:46:30.189Z,3.30
2018-08-20T23:48:59.500Z,2.00
2018-08-20T23:51:28.645Z,2.70
2018-08-20T23:54:00.231Z,2.23
2018-08-20T23:56:29.455Z,3.60
2018-08-20T23:58:58.930Z,3.10
